createdAt,value
2022-10-11T00:02:01.109Z,66.91
2022-10-11T00:04:29.001Z,66.95
2022-10-11T00:07:07.856Z,66.91
2022-10-11T00:09:35.831Z,67.19
2022-10-11T00:12:04.230Z,67.03
2022-10-11T00:14:33.923Z,67.13
2022-10-11T00:17:01.910Z,67.46
2022-10-11T00:19:30.539Z,67.50
2022-10-11T00:22:00.816Z,67.44
2022-10-11T00:24:47.823Z,67.73
2022-10-11T00:27:42.745Z,67.34
2022-10-11T00:30:27.153Z,67.75
2022-10-11T00:33:13.969Z,67.87
2022-10-11T00:35:57.589Z,67.99
2022-10-11T00:38:42.303Z,68.05
2022-10-11T00:41:40.009Z,67.77
2022-10-11T00:44:34.274Z,68.19
2022-10-11T00:47:20.401Z,68.65
2022-10-11T01:00:30.562Z,68.19
2022-10-11T01:03:11.141Z,68.22
2022-10-11T01:05:55.354Z,68.62
2022-10-11T01:11:42.506Z,69.01
2022-10-11T01:15:17.737Z,68.36
2022-10-11T01:18:50.066Z,68.75
2022-10-11T01:21:48.145Z,68.77
2022-10-11T01:24:54.894Z,68.64
2022-10-11T01:32:29.800Z,68.67
2022-10-11T01:55:07.620Z,69.18
2022-10-11T01:57:53.416Z,69.16
2022-10-11T02:00:53.444Z,69.77
2022-10-11T02:03:44.616Z,69.71
2022-10-11T02:06:50.056Z,69.55
2022-10-11T02:10:25.653Z,69.63
2022-10-11T02:13:24.354Z,69.63
2022-10-11T02:16:23.398Z,69.84
2022-10-11T02:19:21.965Z,69.92
2022-10-11T02:32:38.473Z,69.39
2022-10-11T02:46:31.297Z,70.09
2022-10-11T02:49:21.197Z,70.06
2022-10-11T02:52:18.917Z,70.07
2022-10-11T02:55:14.266Z,70.31
2022-10-11T02:58:07.920Z,69.97
2022-10-11T03:11:20.062Z,70.17
2022-10-11T03:14:00.075Z,70.29
2022-10-11T03:16:55.139Z,70.07
2022-10-11T03:30:06.440Z,69.90
2022-10-11T03:33:39.957Z,70.29
2022-10-11T03:36:23.056Z,70.26
2022-10-11T03:49:32.653Z,69.86
2022-10-11T03:59:35.825Z,69.95
2022-10-11T04:03:10.740Z,69.63
2022-10-11T04:16:48.545Z,69.32
2022-10-11T04:20:10.635Z,69.35
2022-10-11T04:23:07.672Z,69.49
2022-10-11T04:25:53.793Z,69.56
2022-10-11T04:28:41.252Z,69.79
2022-10-11T04:31:35.591Z,69.68
2022-10-11T04:34:16.661Z,69.76
2022-10-11T04:37:11.100Z,69.75
2022-10-11T04:39:50.216Z,69.96
2022-10-11T04:42:35.070Z,69.65
2022-10-11T04:45:14.703Z,69.64
2022-10-11T04:47:57.498Z,69.53
2022-10-11T04:50:37.680Z,69.79
2022-10-11T04:53:27.873Z,69.58
2022-10-11T04:56:15.042Z,69.87
2022-10-11T04:59:00.739Z,70.03
2022-10-11T05:12:23.303Z,69.14
2022-10-11T05:15:06.096Z,69.36
2022-10-11T05:28:11.982Z,69.37
2022-10-11T05:30:54.506Z,69.58
2022-10-11T05:33:35.556Z,69.77
2022-10-11T05:36:19.757Z,69.71
2022-10-11T05:39:02.935Z,69.75
2022-10-11T05:42:05.462Z,69.96
2022-10-11T05:45:01.697Z,69.84
2022-10-11T05:47:41.829Z,69.89
2022-10-11T05:51:09.804Z,69.60
2022-10-11T05:53:50.693Z,69.91
2022-10-11T05:56:34.979Z,69.64
2022-10-11T05:59:18.004Z,69.87
2022-10-11T06:02:00.192Z,70.21
2022-10-11T06:04:42.419Z,69.95
2022-10-11T06:07:24.138Z,69.90
2022-10-11T06:10:05.864Z,69.80
2022-10-11T06:12:54.834Z,69.79
2022-10-11T06:15:49.308Z,69.88
2022-10-11T06:18:43.755Z,70.02
2022-10-11T06:21:49.017Z,69.86
2022-10-11T06:24:49.085Z,69.40
2022-10-11T06:27:47.486Z,69.78
2022-10-11T06:30:56.794Z,69.77
2022-10-11T06:33:54.927Z,69.74
2022-10-11T06:50:58.967Z,69.65
2022-10-11T06:53:56.653Z,69.62
2022-10-11T06:56:53.602Z,69.88
2022-10-11T06:59:32.506Z,69.67
2022-10-11T07:02:27.922Z,69.54
2022-10-11T07:05:36.414Z,69.49
2022-10-11T07:09:55.910Z,69.69
2022-10-11T07:12:36.452Z,69.68
2022-10-11T07:15:32.071Z,69.41
2022-10-11T07:18:40.857Z,69.41
2022-10-11T07:21:21.595Z,68.73
2022-10-11T07:24:28.174Z,69.20
2022-10-11T07:27:26.690Z,69.02
2022-10-11T07:30:32.492Z,69.10
2022-10-11T07:33:41.998Z,68.63
2022-10-11T07:36:53.390Z,68.03
2022-10-11T07:39:56.857Z,67.63
2022-10-11T07:43:02.723Z,67.26
2022-10-11T07:56:33.337Z,65.74
2022-10-11T07:59:27.870Z,65.81
2022-10-11T08:02:23.914Z,65.74
2022-10-11T08:05:28.427Z,65.75
2022-10-11T08:08:25.025Z,66.10
2022-10-11T08:11:05.005Z,66.16
2022-10-11T08:14:08.809Z,66.26
2022-10-11T08:16:47.360Z,66.21
2022-10-11T08:19:25.885Z,66.13
2022-10-11T08:22:24.241Z,66.34
2022-10-11T08:25:05.296Z,66.24
2022-10-11T08:28:05.206Z,66.14
2022-10-11T08:31:13.483Z,65.80
2022-10-11T08:34:12.026Z,65.82
2022-10-11T08:37:10.691Z,65.27
2022-10-11T08:39:51.767Z,65.17
2022-10-11T08:42:37.317Z,64.86
2022-10-11T08:45:36.628Z,64.72
2022-10-11T08:48:35.757Z,64.64
2022-10-11T08:51:34.726Z,64.33
2022-10-11T08:54:39.763Z,64.41
2022-10-11T08:57:40.623Z,63.91
2022-10-11T09:01:06.998Z,63.62
2022-10-11T09:04:43.198Z,63.55
2022-10-11T09:18:13.567Z,63.12
2022-10-11T09:21:34.883Z,62.44
2022-10-11T09:24:52.746Z,61.56
2022-10-11T09:28:03.548Z,60.71
2022-10-11T09:30:51.573Z,60.31
2022-10-11T09:33:48.304Z,59.66
2022-10-11T09:36:47.957Z,58.02
2022-10-11T09:39:37.328Z,53.85
2022-10-11T09:42:19.735Z,51.49
2022-10-11T09:44:49.153Z,51.15
2022-10-11T09:47:20.297Z,50.64
2022-10-11T09:50:00.969Z,50.42
2022-10-11T09:58:40.157Z,47.54
2022-10-11T10:01:23.716Z,46.40
2022-10-11T10:04:29.051Z,47.47
2022-10-11T10:07:13.138Z,47.55
2022-10-11T10:09:41.153Z,43.18
2022-10-11T10:12:13.986Z,38.85
2022-10-11T10:14:43.296Z,34.01
2022-10-11T10:17:17.451Z,33.60
2022-10-11T10:19:50.443Z,33.01
2022-10-11T10:22:21.397Z,32.21
2022-10-11T10:24:51.310Z,32.06
2022-10-11T10:27:22.336Z,32.45
2022-10-11T10:30:25.035Z,31.70
2022-10-11T10:33:02.210Z,29.72
2022-10-11T10:40:17.994Z,25.45
2022-10-11T10:42:49.108Z,20.95
2022-10-11T10:45:23.175Z,19.62
2022-10-11T10:48:24.720Z,20.02
2022-10-11T10:51:21.100Z,19.51
2022-10-11T10:54:03.539Z,17.27
2022-10-11T10:56:46.014Z,17.01
2022-10-11T10:59:38.951Z,16.47
2022-10-11T11:02:39.633Z,15.79
2022-10-11T11:09:47.757Z,15.71
2022-10-11T11:12:49.579Z,15.12
2022-10-11T11:15:33.144Z,14.93
2022-10-11T11:18:23.015Z,15.60
2022-10-11T11:21:05.314Z,15.34
2022-10-11T11:23:41.891Z,15.37
2022-10-11T11:26:22.210Z,14.66
2022-10-11T11:29:10.290Z,14.41
2022-10-11T11:32:01.892Z,13.62
2022-10-11T11:34:38.390Z,13.40
2022-10-11T11:37:22.874Z,12.83
2022-10-11T11:39:59.275Z,12.85
2022-10-11T11:42:40.399Z,12.75
2022-10-11T11:45:18.470Z,12.64
2022-10-11T11:47:53.073Z,12.18
2022-10-11T11:50:25.338Z,12.79
2022-10-11T11:52:58.710Z,13.18
2022-10-11T11:55:33.431Z,13.28
2022-10-11T11:58:26.579Z,13.65
2022-10-11T12:01:03.757Z,15.05
2022-10-11T12:03:39.296Z,14.89
2022-10-11T12:06:25.798Z,16.57
2022-10-11T12:12:06.091Z,22.83
2022-10-11T12:14:41.611Z,24.93
2022-10-11T12:21:24.093Z,16.39
2022-10-11T12:23:54.339Z,15.78
2022-10-11T12:26:41.511Z,16.10
2022-10-11T12:29:47.341Z,16.30
2022-10-11T12:32:53.588Z,17.00
2022-10-11T12:36:07.305Z,19.33
2022-10-11T12:38:40.091Z,22.28
2022-10-11T12:41:50.132Z,24.13
2022-10-11T12:44:24.111Z,27.20
2022-10-11T12:47:26.103Z,28.36
2022-10-11T12:50:14.489Z,29.28
2022-10-11T12:52:55.529Z,31.05
2022-10-11T12:55:36.139Z,31.85
2022-10-11T12:58:30.749Z,32.49
2022-10-11T13:01:19.162Z,32.96
2022-10-11T13:03:53.231Z,34.61
2022-10-11T13:06:25.095Z,35.57
2022-10-11T13:09:10.462Z,36.46
2022-10-11T13:11:48.432Z,37.14
2022-10-11T13:14:19.862Z,36.54
2022-10-11T13:17:05.107Z,37.33
2022-10-11T13:19:36.582Z,36.85
2022-10-11T13:22:06.554Z,38.27
2022-10-11T13:24:39.853Z,39.36
2022-10-11T13:27:17.118Z,39.02
2022-10-11T13:29:46.399Z,39.61
2022-10-11T13:32:18.811Z,40.88
2022-10-11T13:34:52.677Z,40.99
2022-10-11T13:37:23.972Z,41.23
2022-10-11T13:43:36.898Z,41.13
2022-10-11T13:46:45.551Z,41.28
2022-10-11T13:54:18.030Z,41.00
2022-10-11T13:56:52.473Z,42.01
2022-10-11T13:59:23.700Z,42.60
2022-10-11T14:21:37.053Z,43.84
2022-10-11T14:24:06.566Z,45.38
2022-10-11T14:26:36.945Z,45.32
2022-10-11T14:29:10.432Z,45.25
2022-10-11T14:31:41.705Z,46.16
2022-10-11T14:34:17.193Z,47.15
2022-10-11T14:36:46.656Z,46.48
2022-10-11T14:39:16.499Z,45.96
2022-10-11T14:41:44.833Z,46.29
2022-10-11T14:44:12.872Z,45.93
2022-10-11T14:46:41.361Z,47.28
2022-10-11T14:49:14.825Z,46.12
2022-10-11T14:51:43.550Z,46.08
2022-10-11T14:54:14.073Z,45.95
2022-10-11T14:56:41.981Z,46.18
2022-10-11T14:59:13.840Z,48.31
2022-10-11T15:01:42.512Z,48.92
2022-10-11T15:04:10.673Z,48.92
2022-10-11T15:06:40.552Z,49.54
2022-10-11T15:09:09.028Z,49.53
2022-10-11T15:11:39.592Z,50.44
2022-10-11T15:14:08.118Z,51.65
2022-10-11T15:16:36.529Z,52.07
2022-10-11T15:19:05.035Z,53.54
2022-10-11T15:21:33.357Z,52.95
2022-10-11T15:24:01.201Z,53.40
2022-10-11T15:26:32.639Z,54.79
2022-10-11T15:29:04.597Z,55.08
2022-10-11T15:31:33.888Z,55.22
2022-10-11T15:34:01.953Z,55.77
2022-10-11T15:36:30.323Z,55.75
2022-10-11T15:38:58.270Z,55.95
2022-10-11T15:41:26.229Z,56.06
2022-10-11T15:43:54.547Z,56.22
2022-10-11T15:46:24.114Z,56.42
2022-10-11T15:48:52.685Z,56.72
2022-10-11T15:51:20.893Z,57.33
2022-10-11T15:53:48.606Z,57.46
2022-10-11T15:56:19.314Z,57.69
2022-10-11T15:58:47.231Z,57.61
2022-10-11T16:01:17.893Z,58.20
2022-10-11T16:03:48.295Z,58.38
2022-10-11T16:06:16.693Z,58.81
2022-10-11T16:08:45.018Z,59.03
2022-10-11T16:11:13.697Z,59.61
2022-10-11T16:13:41.694Z,59.68
2022-10-11T16:16:10.556Z,60.10
2022-10-11T16:18:40.552Z,60.45
2022-10-11T16:21:15.379Z,60.58
2022-10-11T16:23:43.481Z,60.78
2022-10-11T16:26:17.362Z,61.06
2022-10-11T16:28:47.800Z,61.19
2022-10-11T16:31:20.678Z,61.46
2022-10-11T16:33:48.678Z,61.65
2022-10-11T16:36:35.951Z,61.44
2022-10-11T16:39:08.135Z,62.14
2022-10-11T16:41:36.228Z,62.37
2022-10-11T16:44:04.852Z,62.53
2022-10-11T16:46:34.053Z,62.64
2022-10-11T16:49:02.056Z,62.92
2022-10-11T16:51:31.295Z,63.46
2022-10-11T16:53:59.693Z,63.28
2022-10-11T16:56:27.890Z,63.49
2022-10-11T16:58:56.325Z,63.67
2022-10-11T17:01:25.248Z,63.78
2022-10-11T17:03:54.036Z,63.79
2022-10-11T17:06:21.778Z,63.94
2022-10-11T17:08:50.936Z,64.04
2022-10-11T17:11:18.965Z,64.28
2022-10-11T17:13:46.985Z,64.38
2022-10-11T17:16:15.132Z,64.21
2022-10-11T17:18:42.911Z,64.33
2022-10-11T17:21:14.226Z,64.66
2022-10-11T17:23:42.664Z,65.07
2022-10-11T17:26:16.178Z,64.89
2022-10-11T17:28:44.223Z,65.14
2022-10-11T17:31:12.582Z,64.86
2022-10-11T17:33:40.554Z,65.19
2022-10-11T17:36:17.898Z,65.55
2022-10-11T17:38:45.805Z,65.48
2022-10-11T17:41:15.032Z,65.75
2022-10-11T17:43:43.167Z,65.77
2022-10-11T17:46:13.282Z,66.10
2022-10-11T17:48:41.361Z,65.84
2022-10-11T17:51:10.754Z,66.29
2022-10-11T17:53:40.525Z,65.92
2022-10-11T17:56:11.488Z,66.27
2022-10-11T17:58:41.121Z,66.01
2022-10-11T18:01:11.961Z,66.29
2022-10-11T18:03:40.372Z,66.43
2022-10-11T18:06:10.123Z,66.58
2022-10-11T18:08:40.832Z,66.89
2022-10-11T18:11:12.064Z,66.72
2022-10-11T18:13:45.808Z,66.98
2022-10-11T18:16:14.634Z,67.06
2022-10-11T18:18:43.332Z,66.96
2022-10-11T18:21:12.487Z,66.97
2022-10-11T18:23:41.385Z,66.96
2022-10-11T18:26:11.752Z,67.48
2022-10-11T18:28:42.198Z,67.05
2022-10-11T18:31:13.936Z,67.39
2022-10-11T18:33:43.464Z,67.33
2022-10-11T18:36:14.041Z,67.38
2022-10-11T18:38:46.359Z,67.36
2022-10-11T18:41:19.089Z,67.41
2022-10-11T18:43:52.398Z,67.71
2022-10-11T18:46:22.196Z,67.89
2022-10-11T18:48:52.468Z,67.85
2022-10-11T18:51:22.889Z,67.92
2022-10-11T18:53:51.414Z,68.02
2022-10-11T18:56:21.994Z,68.12
2022-10-11T18:58:53.878Z,68.17
2022-10-11T19:01:24.023Z,68.34
2022-10-11T19:03:54.086Z,68.50
2022-10-11T19:06:25.013Z,68.52
2022-10-11T19:09:01.232Z,68.54
2022-10-11T19:11:29.490Z,68.26
2022-10-11T19:14:02.011Z,68.73
2022-10-11T19:16:31.689Z,68.79
2022-10-11T19:19:00.029Z,68.83
2022-10-11T19:21:31.583Z,68.81
2022-10-11T19:24:00.425Z,68.73
2022-10-11T19:26:31.305Z,68.68
2022-10-11T19:29:03.447Z,68.95
2022-10-11T19:31:33.459Z,69.04
2022-10-11T19:34:04.450Z,69.27
2022-10-11T19:36:36.624Z,69.07
2022-10-11T19:39:06.275Z,69.59
2022-10-11T19:41:34.674Z,69.04
2022-10-11T19:44:04.863Z,69.21
2022-10-11T19:46:50.375Z,69.28
2022-10-11T19:49:21.492Z,69.11
2022-10-11T19:51:49.610Z,69.01
2022-10-11T19:54:18.101Z,68.89
2022-10-11T19:56:46.117Z,69.38
2022-10-11T19:59:17.513Z,69.09
2022-10-11T20:01:52.307Z,68.79
2022-10-11T20:07:17.702Z,69.48
2022-10-11T20:09:45.945Z,69.35
2022-10-11T20:12:20.423Z,69.36
2022-10-11T20:15:07.568Z,69.56
2022-10-11T20:17:50.646Z,69.71
2022-10-11T20:21:04.319Z,69.11
2022-10-11T20:23:38.565Z,69.35
2022-10-11T20:26:37.720Z,69.48
2022-10-11T20:29:14.426Z,69.34
2022-10-11T20:31:48.389Z,69.87
2022-10-11T20:34:17.503Z,69.63
2022-10-11T20:36:49.381Z,69.29
2022-10-11T20:39:24.411Z,69.17
2022-10-11T20:41:54.484Z,69.14
2022-10-11T20:44:22.702Z,69.60
2022-10-11T20:47:01.636Z,69.57
2022-10-11T20:49:37.343Z,69.94
2022-10-11T20:52:08.765Z,69.91
2022-10-11T20:54:37.289Z,69.52
2022-10-11T20:57:07.802Z,69.90
2022-10-11T20:59:36.346Z,69.49
2022-10-11T21:02:06.239Z,69.84
2022-10-11T21:04:34.466Z,69.60
2022-10-11T21:07:02.529Z,69.79
2022-10-11T21:09:30.730Z,70.08
2022-10-11T21:11:58.722Z,69.73
2022-10-11T21:14:26.690Z,69.70
2022-10-11T21:16:57.260Z,70.02
2022-10-11T21:19:27.117Z,70.36
2022-10-11T21:21:55.841Z,70.34
2022-10-11T21:24:23.843Z,69.92
2022-10-11T21:26:51.729Z,69.86
2022-10-11T21:29:19.649Z,70.48
2022-10-11T21:31:47.548Z,70.29
2022-10-11T21:34:16.536Z,69.99
2022-10-11T21:36:46.721Z,70.11
2022-10-11T21:39:14.949Z,70.57
2022-10-11T21:41:43.603Z,70.62
2022-10-11T21:44:11.718Z,70.05
2022-10-11T21:47:05.525Z,70.67
2022-10-11T21:49:28.113Z,70.21
2022-10-11T21:51:58.285Z,70.24
2022-10-11T21:54:26.188Z,70.12
2022-10-11T21:56:54.469Z,70.18
2022-10-11T21:59:23.050Z,70.39
2022-10-11T22:01:51.727Z,70.55
2022-10-11T22:04:20.006Z,70.66
2022-10-11T22:06:48.259Z,70.62
2022-10-11T22:09:17.612Z,70.71
2022-10-11T22:11:45.540Z,70.42
2022-10-11T22:14:13.985Z,70.43
2022-10-11T22:16:41.998Z,70.86
2022-10-11T22:19:10.233Z,70.60
2022-10-11T22:21:42.628Z,70.97
2022-10-11T22:24:13.404Z,70.59
2022-10-11T22:26:42.701Z,70.45
2022-10-11T22:29:12.838Z,70.93
2022-10-11T22:31:41.449Z,70.49
2022-10-11T22:34:09.404Z,70.61
2022-10-11T22:36:37.196Z,70.74
2022-10-11T22:39:07.920Z,70.96
2022-10-11T22:41:38.299Z,70.79
2022-10-11T22:44:10.414Z,70.48
2022-10-11T22:46:38.217Z,70.61
2022-10-11T22:49:07.698Z,70.91
2022-10-11T22:51:35.854Z,70.75
2022-10-11T22:54:03.689Z,70.74
2022-10-11T22:56:31.533Z,70.75
2022-10-11T22:58:59.734Z,70.91
2022-10-11T23:01:28.990Z,70.90
2022-10-11T23:03:56.829Z,70.75
2022-10-11T23:06:25.443Z,70.78
2022-10-11T23:08:54.188Z,70.89
2022-10-11T23:11:22.183Z,71.15
2022-10-11T23:13:51.220Z,70.86
2022-10-11T23:16:20.560Z,70.94
2022-10-11T23:18:52.993Z,71.00
2022-10-11T23:21:21.499Z,70.74
2022-10-11T23:23:49.416Z,71.19
2022-10-11T23:26:17.945Z,70.78
2022-10-11T23:28:46.249Z,71.13
2022-10-11T23:31:16.582Z,71.38
2022-10-11T23:33:44.753Z,71.23
2022-10-11T23:36:16.911Z,71.06
2022-10-11T23:38:45.178Z,71.17
2022-10-11T23:41:12.925Z,70.67
2022-10-11T23:43:40.820Z,70.99
2022-10-11T23:46:08.736Z,70.85
2022-10-11T23:48:36.541Z,70.81
2022-10-11T23:51:04.485Z,71.08
2022-10-11T23:53:34.124Z,71.14
2022-10-11T23:56:01.957Z,71.34
2022-10-11T23:58:29.737Z,71.32
